createdAt,value
2022-10-10T00:01:39.223Z,7.46
2022-10-10T00:04:09.165Z,7.45
2022-10-10T00:06:37.642Z,7.51
2022-10-10T00:09:07.054Z,7.52
2022-10-10T00:11:36.432Z,7.54
2022-10-10T00:14:05.676Z,7.48
2022-10-10T00:16:34.143Z,7.39
2022-10-10T00:19:02.626Z,7.39
2022-10-10T00:21:32.590Z,7.47
2022-10-10T00:24:01.796Z,7.42
2022-10-10T00:26:30.356Z,7.39
2022-10-10T00:28:58.877Z,7.39
2022-10-10T00:31:27.424Z,7.42
2022-10-10T00:33:55.892Z,7.42
2022-10-10T00:36:24.397Z,7.42
2022-10-10T00:38:54.303Z,7.47
2022-10-10T00:41:22.980Z,7.49
2022-10-10T00:44:06.631Z,7.37
2022-10-10T00:46:35.894Z,7.46
2022-10-10T00:49:06.249Z,7.42
2022-10-10T00:51:35.374Z,7.27
2022-10-10T00:54:10.038Z,7.34
2022-10-10T00:56:42.513Z,7.43
2022-10-10T00:59:12.901Z,7.40
2022-10-10T01:01:42.719Z,7.50
2022-10-10T01:04:33.311Z,7.52
2022-10-10T01:07:03.221Z,7.40
2022-10-10T01:09:33.974Z,7.50
2022-10-10T01:12:12.312Z,7.37
2022-10-10T01:14:47.407Z,7.28
2022-10-10T01:17:24.493Z,7.24
2022-10-10T01:20:24.947Z,7.13
2022-10-10T01:23:14.355Z,7.22
2022-10-10T01:26:00.101Z,7.18
2022-10-10T01:28:40.423Z,7.03
2022-10-10T01:31:11.029Z,7.02
2022-10-10T01:33:46.331Z,7.05
2022-10-10T01:36:23.409Z,7.12
2022-10-10T01:38:58.705Z,7.10
2022-10-10T01:41:32.501Z,7.00
2022-10-10T01:44:02.444Z,6.96
2022-10-10T01:46:30.961Z,6.85
2022-10-10T01:49:01.059Z,6.79
2022-10-10T01:51:45.193Z,6.80
2022-10-10T01:54:26.781Z,6.78
2022-10-10T01:57:03.389Z,6.80
2022-10-10T01:59:46.300Z,6.91
2022-10-10T02:02:21.951Z,6.93
2022-10-10T02:04:54.298Z,6.78
2022-10-10T02:07:32.952Z,6.94
2022-10-10T02:10:05.515Z,7.04
2022-10-10T02:12:36.210Z,7.16
2022-10-10T02:15:12.022Z,7.22
2022-10-10T02:17:43.451Z,7.27
2022-10-10T02:20:15.133Z,7.31
2022-10-10T02:22:46.089Z,7.25
2022-10-10T02:25:15.646Z,7.12
2022-10-10T02:27:48.441Z,7.07
2022-10-10T02:30:20.192Z,7.06
2022-10-10T02:32:51.058Z,7.07
2022-10-10T02:35:25.238Z,6.95
2022-10-10T02:37:55.752Z,6.90
2022-10-10T02:40:27.337Z,7.01
2022-10-10T02:42:58.318Z,7.04
2022-10-10T02:45:29.356Z,7.08
2022-10-10T02:47:58.195Z,7.11
2022-10-10T02:50:27.768Z,7.12
2022-10-10T02:52:56.351Z,7.13
2022-10-10T02:55:25.501Z,7.08
2022-10-10T02:57:53.951Z,6.91
2022-10-10T03:00:22.686Z,6.96
2022-10-10T03:02:52.897Z,6.97
2022-10-10T03:05:21.624Z,6.96
2022-10-10T03:07:50.117Z,6.94
2022-10-10T03:10:18.742Z,6.82
2022-10-10T03:12:47.275Z,6.76
2022-10-10T03:15:16.511Z,6.77
2022-10-10T03:17:45.359Z,6.77
2022-10-10T03:20:15.393Z,6.73
2022-10-10T03:22:43.778Z,6.74
2022-10-10T03:25:12.513Z,6.76
2022-10-10T03:27:41.750Z,6.81
2022-10-10T03:30:11.208Z,6.87
2022-10-10T03:32:39.566Z,6.94
2022-10-10T03:35:08.838Z,6.95
2022-10-10T03:37:38.681Z,6.96
2022-10-10T03:40:08.018Z,6.92
2022-10-10T03:42:36.577Z,6.91
2022-10-10T03:45:05.715Z,6.93
2022-10-10T03:47:34.297Z,6.97
2022-10-10T03:50:02.742Z,7.02
2022-10-10T03:52:31.189Z,7.05
2022-10-10T03:55:01.053Z,7.03
2022-10-10T03:57:29.624Z,7.15
2022-10-10T03:59:58.201Z,7.14
2022-10-10T04:02:26.963Z,7.00
2022-10-10T04:04:55.460Z,6.96
2022-10-10T04:07:23.892Z,6.95
2022-10-10T04:09:52.257Z,6.89
2022-10-10T04:12:22.289Z,6.80
2022-10-10T04:14:50.874Z,6.78
2022-10-10T04:17:19.684Z,6.67
2022-10-10T04:19:48.148Z,6.56
2022-10-10T04:22:16.845Z,6.55
2022-10-10T04:24:45.512Z,6.54
2022-10-10T04:27:14.066Z,6.58
2022-10-10T04:29:43.928Z,6.66
2022-10-10T04:32:12.328Z,6.68
2022-10-10T04:34:40.758Z,6.67
2022-10-10T04:37:09.205Z,6.72
2022-10-10T04:39:37.644Z,6.81
2022-10-10T04:42:06.500Z,6.84
2022-10-10T04:44:34.918Z,6.85
2022-10-10T04:47:05.135Z,6.74
2022-10-10T04:49:33.868Z,6.62
2022-10-10T04:52:02.555Z,6.64
2022-10-10T04:54:31.152Z,6.57
2022-10-10T04:56:59.727Z,6.55
2022-10-10T04:59:28.281Z,6.58
2022-10-10T05:02:01.380Z,6.65
2022-10-10T05:04:31.841Z,6.72
2022-10-10T05:07:00.432Z,6.63
2022-10-10T05:09:28.937Z,6.67
2022-10-10T05:11:57.401Z,6.73
2022-10-10T05:14:25.909Z,6.74
2022-10-10T05:16:54.481Z,6.73
2022-10-10T05:19:23.030Z,6.79
2022-10-10T05:21:52.985Z,6.86
2022-10-10T05:24:21.418Z,6.86
2022-10-10T05:26:49.980Z,6.85
2022-10-10T05:29:18.496Z,6.85
2022-10-10T05:31:46.881Z,6.83
2022-10-10T05:34:16.236Z,6.85
2022-10-10T05:36:44.874Z,6.89
2022-10-10T05:39:14.862Z,6.91
2022-10-10T05:41:43.436Z,6.92
2022-10-10T05:44:11.956Z,6.94
2022-10-10T05:46:40.606Z,6.92
2022-10-10T05:49:09.311Z,6.94
2022-10-10T05:51:37.814Z,6.98
2022-10-10T05:54:06.678Z,6.98
2022-10-10T05:56:37.128Z,7.01
2022-10-10T05:59:06.123Z,7.03
2022-10-10T06:01:34.635Z,7.07
2022-10-10T06:04:03.414Z,7.07
2022-10-10T06:06:32.192Z,7.10
2022-10-10T06:09:00.884Z,7.13
2022-10-10T06:11:31.924Z,7.16
2022-10-10T06:14:01.748Z,7.05
2022-10-10T06:16:30.423Z,7.09
2022-10-10T06:18:59.131Z,7.14
2022-10-10T06:21:28.119Z,7.15
2022-10-10T06:23:56.612Z,7.21
2022-10-10T06:26:25.311Z,7.24
2022-10-10T06:28:54.012Z,7.18
2022-10-10T06:31:24.011Z,7.32
2022-10-10T06:33:53.522Z,7.35
2022-10-10T06:36:22.002Z,7.37
2022-10-10T06:38:50.702Z,7.47
2022-10-10T06:41:19.237Z,7.55
2022-10-10T06:43:49.305Z,7.61
2022-10-10T06:46:18.004Z,7.68
2022-10-10T06:48:49.555Z,7.74
2022-10-10T06:51:19.386Z,7.80
2022-10-10T06:53:48.171Z,7.88
2022-10-10T06:56:27.155Z,7.95
2022-10-10T06:58:56.604Z,8.07
2022-10-10T07:01:26.840Z,8.16
2022-10-10T07:03:56.845Z,8.26
2022-10-10T07:06:25.870Z,8.45
2022-10-10T07:08:54.427Z,8.45
2022-10-10T07:11:22.925Z,8.55
2022-10-10T07:13:53.958Z,8.57
2022-10-10T07:16:23.370Z,8.71
2022-10-10T07:18:51.980Z,8.85
2022-10-10T07:21:21.888Z,8.90
2022-10-10T07:23:50.315Z,9.02
2022-10-10T07:26:22.373Z,9.12
2022-10-10T07:28:51.069Z,9.23
2022-10-10T07:31:19.862Z,9.35
2022-10-10T07:33:50.701Z,9.49
2022-10-10T07:36:20.165Z,9.56
2022-10-10T07:38:53.382Z,9.64
2022-10-10T07:41:22.561Z,9.76
2022-10-10T07:43:56.177Z,9.94
2022-10-10T07:46:25.171Z,9.99
2022-10-10T07:48:53.720Z,10.22
2022-10-10T07:51:22.303Z,10.31
2022-10-10T07:53:53.295Z,10.41
2022-10-10T07:56:21.977Z,10.58
2022-10-10T07:58:50.457Z,10.73
2022-10-10T08:01:19.133Z,10.79
2022-10-10T08:03:47.695Z,10.79
2022-10-10T08:06:18.698Z,11.01
2022-10-10T08:08:51.590Z,11.08
2022-10-10T08:11:23.192Z,11.20
2022-10-10T08:13:52.446Z,11.24
2022-10-10T08:16:21.195Z,11.43
2022-10-10T08:18:50.174Z,11.48
2022-10-10T08:21:19.032Z,11.50
2022-10-10T08:23:47.950Z,11.64
2022-10-10T08:26:18.239Z,11.84
2022-10-10T08:28:48.996Z,11.93
2022-10-10T08:31:20.079Z,12.02
2022-10-10T08:33:50.721Z,12.15
2022-10-10T08:36:21.560Z,12.22
2022-10-10T08:38:50.622Z,12.26
2022-10-10T08:41:25.893Z,12.39
2022-10-10T08:43:59.267Z,12.49
2022-10-10T08:46:36.899Z,12.63
2022-10-10T08:49:18.164Z,12.72
2022-10-10T08:51:54.060Z,12.80
2022-10-10T08:54:27.057Z,12.83
2022-10-10T08:57:00.172Z,12.86
2022-10-10T08:59:35.541Z,12.96
2022-10-10T09:02:54.698Z,13.04
2022-10-10T09:05:47.787Z,13.12
2022-10-10T09:08:40.795Z,13.20
2022-10-10T09:11:21.807Z,13.30
2022-10-10T09:13:58.575Z,13.41
2022-10-10T09:16:41.792Z,13.53
2022-10-10T09:19:24.752Z,13.61
2022-10-10T09:21:58.771Z,13.75
2022-10-10T09:24:32.659Z,13.94
2022-10-10T09:27:05.319Z,13.99
2022-10-10T09:29:41.078Z,14.05
2022-10-10T09:32:15.692Z,14.29
2022-10-10T09:34:49.323Z,14.34
2022-10-10T09:37:35.632Z,14.39
2022-10-10T09:40:19.227Z,14.51
2022-10-10T09:42:47.709Z,14.53
2022-10-10T09:45:20.129Z,14.66
2022-10-10T09:47:54.680Z,14.80
2022-10-10T09:50:27.352Z,14.82
2022-10-10T09:53:00.007Z,14.94
2022-10-10T09:55:32.340Z,14.96
2022-10-10T09:58:12.210Z,15.04
2022-10-10T10:00:40.835Z,15.25
2022-10-10T10:03:15.748Z,15.43
2022-10-10T10:05:47.648Z,15.47
2022-10-10T10:08:26.300Z,15.59
2022-10-10T10:10:58.591Z,15.59
2022-10-10T10:13:31.809Z,15.65
2022-10-10T10:16:03.791Z,15.78
2022-10-10T10:18:40.710Z,15.91
2022-10-10T10:21:19.024Z,15.97
2022-10-10T10:23:54.497Z,16.06
2022-10-10T10:26:27.607Z,16.17
2022-10-10T10:28:58.220Z,16.29
2022-10-10T10:31:44.536Z,16.37
2022-10-10T10:34:37.407Z,16.51
2022-10-10T10:37:17.928Z,16.57
2022-10-10T10:39:57.513Z,16.72
2022-10-10T10:42:45.576Z,16.86
2022-10-10T10:45:18.377Z,17.08
2022-10-10T10:47:56.728Z,17.16
2022-10-10T10:50:39.114Z,17.30
2022-10-10T10:53:15.813Z,17.39
2022-10-10T10:55:51.515Z,17.50
2022-10-10T11:01:55.946Z,17.51
2022-10-10T11:05:23.758Z,17.58
2022-10-10T11:07:51.299Z,17.56
2022-10-10T11:10:25.961Z,17.60
2022-10-10T11:13:04.752Z,17.70
2022-10-10T11:16:05.473Z,17.71
2022-10-10T11:18:34.903Z,17.72
2022-10-10T11:21:08.654Z,17.77
2022-10-10T11:23:43.850Z,17.79
2022-10-10T11:26:21.499Z,17.83
2022-10-10T11:28:54.466Z,17.82
2022-10-10T11:31:26.505Z,17.95
2022-10-10T11:33:59.378Z,18.12
2022-10-10T11:36:31.573Z,18.21
2022-10-10T11:39:06.596Z,18.32
2022-10-10T11:41:40.396Z,18.51
2022-10-10T11:44:15.235Z,18.63
2022-10-10T11:46:47.152Z,18.74
2022-10-10T11:49:23.679Z,18.69
2022-10-10T11:52:33.015Z,18.57
2022-10-10T11:55:11.805Z,18.66
2022-10-10T11:57:44.855Z,18.86
2022-10-10T12:00:16.552Z,19.01
2022-10-10T12:02:47.726Z,19.01
2022-10-10T12:05:24.700Z,19.07
2022-10-10T12:08:17.594Z,19.11
2022-10-10T12:10:53.825Z,19.14
2022-10-10T12:13:30.114Z,19.15
2022-10-10T12:16:04.029Z,19.14
2022-10-10T12:18:40.838Z,19.24
2022-10-10T12:21:11.909Z,19.33
2022-10-10T12:23:41.451Z,19.48
2022-10-10T12:26:15.734Z,19.51
2022-10-10T12:29:00.066Z,19.64
2022-10-10T12:31:36.021Z,19.70
2022-10-10T12:34:17.101Z,19.82
2022-10-10T12:37:12.302Z,20.00
2022-10-10T12:40:01.617Z,20.20
2022-10-10T12:42:34.223Z,20.27
2022-10-10T12:45:02.861Z,20.38
2022-10-10T12:48:04.503Z,20.45
2022-10-10T12:50:37.752Z,20.60
2022-10-10T12:53:17.297Z,20.70
2022-10-10T12:55:48.343Z,20.86
2022-10-10T12:58:27.384Z,20.90
2022-10-10T13:00:58.407Z,20.99
2022-10-10T13:03:32.442Z,21.13
2022-10-10T13:06:06.928Z,21.02
2022-10-10T13:08:38.930Z,21.02
2022-10-10T13:11:10.983Z,21.09
2022-10-10T13:13:42.170Z,21.16
2022-10-10T13:16:14.723Z,21.21
2022-10-10T13:18:45.858Z,21.03
2022-10-10T13:21:19.686Z,20.94
2022-10-10T13:26:40.555Z,20.99
2022-10-10T13:29:21.367Z,20.99
2022-10-10T13:31:50.419Z,20.93
2022-10-10T13:34:26.469Z,21.00
2022-10-10T13:36:58.349Z,21.15
2022-10-10T13:39:28.950Z,21.25
2022-10-10T13:41:58.440Z,21.11
2022-10-10T13:44:34.146Z,21.02
2022-10-10T13:47:35.587Z,21.13
2022-10-10T13:50:04.249Z,21.02
2022-10-10T13:52:32.960Z,20.99
2022-10-10T13:55:16.739Z,21.10
2022-10-10T13:57:45.275Z,21.09
2022-10-10T14:00:20.251Z,21.14
2022-10-10T14:02:50.096Z,21.01
2022-10-10T14:05:26.253Z,21.01
2022-10-10T14:07:55.914Z,20.95
2022-10-10T14:10:26.644Z,20.88
2022-10-10T14:12:57.769Z,21.04
2022-10-10T14:15:39.162Z,20.82
2022-10-10T14:18:17.628Z,20.80
2022-10-10T14:20:46.534Z,20.76
2022-10-10T14:23:15.383Z,20.65
2022-10-10T14:25:45.376Z,20.78
2022-10-10T14:28:18.122Z,20.77
2022-10-10T14:30:48.304Z,20.73
2022-10-10T14:33:19.583Z,20.69
2022-10-10T14:35:49.878Z,20.74
2022-10-10T14:38:18.358Z,20.69
2022-10-10T14:40:49.621Z,20.76
2022-10-10T14:43:20.879Z,20.83
2022-10-10T14:45:53.288Z,20.84
2022-10-10T14:48:22.029Z,21.00
2022-10-10T14:50:51.500Z,20.90
2022-10-10T14:53:20.185Z,20.89
2022-10-10T14:55:52.527Z,20.70
2022-10-10T14:58:24.378Z,20.57
2022-10-10T15:00:54.642Z,20.61
2022-10-10T15:03:23.676Z,20.59
2022-10-10T15:05:52.277Z,20.51
2022-10-10T15:08:21.042Z,20.63
2022-10-10T15:10:49.884Z,20.61
2022-10-10T15:13:18.567Z,20.65
2022-10-10T15:15:49.003Z,20.61
2022-10-10T15:18:49.071Z,20.58
2022-10-10T15:21:11.564Z,20.51
2022-10-10T15:23:40.162Z,20.32
2022-10-10T15:26:09.284Z,20.26
2022-10-10T15:28:37.845Z,20.23
2022-10-10T15:31:07.179Z,19.98
2022-10-10T15:33:37.019Z,19.98
2022-10-10T15:36:09.968Z,19.90
2022-10-10T15:38:39.754Z,19.52
2022-10-10T15:41:10.377Z,19.61
2022-10-10T15:43:45.824Z,19.47
2022-10-10T15:46:14.692Z,19.52
2022-10-10T15:48:44.563Z,19.42
2022-10-10T15:51:13.282Z,19.40
2022-10-10T15:53:42.027Z,19.28
2022-10-10T15:56:13.532Z,19.32
2022-10-10T15:58:42.289Z,19.23
2022-10-10T16:01:13.376Z,19.04
2022-10-10T16:03:42.028Z,19.09
2022-10-10T16:06:12.290Z,19.00
2022-10-10T16:08:41.242Z,19.00
2022-10-10T16:11:11.547Z,18.97
2022-10-10T16:13:40.967Z,18.91
2022-10-10T16:16:12.244Z,18.91
2022-10-10T16:18:42.311Z,18.86
2022-10-10T16:21:16.364Z,18.83
2022-10-10T16:23:45.462Z,18.80
2022-10-10T16:26:15.556Z,18.71
2022-10-10T16:28:44.733Z,18.58
2022-10-10T16:31:17.194Z,18.46
2022-10-10T16:33:47.318Z,18.35
2022-10-10T16:36:20.330Z,18.32
2022-10-10T16:38:50.224Z,18.12
2022-10-10T16:41:46.042Z,18.03
2022-10-10T16:44:09.018Z,17.94
2022-10-10T16:46:37.641Z,17.86
2022-10-10T16:49:06.916Z,17.81
2022-10-10T16:51:36.869Z,17.71
2022-10-10T16:54:06.275Z,17.64
2022-10-10T16:56:35.857Z,17.58
2022-10-10T16:59:05.314Z,17.53
2022-10-10T17:01:33.830Z,17.23
2022-10-10T17:04:03.637Z,17.22
2022-10-10T17:06:37.711Z,17.30
2022-10-10T17:09:10.244Z,17.16
2022-10-10T17:11:39.551Z,17.14
2022-10-10T17:14:11.083Z,17.13
2022-10-10T17:19:28.602Z,16.83
2022-10-10T17:22:00.872Z,16.84
2022-10-10T17:24:31.305Z,16.80
2022-10-10T17:27:00.008Z,16.79
2022-10-10T17:29:28.992Z,16.81
2022-10-10T17:31:58.963Z,16.84
2022-10-10T17:34:29.129Z,16.60
2022-10-10T17:36:57.712Z,16.57
2022-10-10T17:39:26.309Z,16.61
2022-10-10T17:41:56.373Z,16.60
2022-10-10T17:44:25.034Z,16.55
2022-10-10T17:46:54.360Z,16.44
2022-10-10T17:49:22.957Z,16.49
2022-10-10T17:51:51.602Z,16.42
2022-10-10T17:54:20.320Z,16.45
2022-10-10T17:56:49.016Z,16.41
2022-10-10T17:59:21.669Z,16.29
2022-10-10T18:01:50.239Z,16.31
2022-10-10T18:04:18.745Z,16.25
2022-10-10T18:06:47.211Z,16.27
2022-10-10T18:09:16.245Z,16.28
2022-10-10T18:11:44.997Z,16.13
2022-10-10T18:14:13.925Z,16.12
2022-10-10T18:16:45.073Z,16.14
2022-10-10T18:19:13.496Z,16.15
2022-10-10T18:21:42.020Z,16.12
2022-10-10T18:24:10.835Z,16.12
2022-10-10T18:26:39.400Z,16.11
2022-10-10T18:29:07.899Z,16.12
2022-10-10T18:31:38.421Z,16.05
2022-10-10T18:34:09.171Z,15.89
2022-10-10T18:36:39.217Z,15.92
2022-10-10T18:39:10.223Z,15.84
2022-10-10T18:41:39.262Z,15.86
2022-10-10T18:44:10.056Z,15.87
2022-10-10T18:46:39.193Z,15.85
2022-10-10T18:49:10.309Z,15.86
2022-10-10T18:51:41.671Z,15.81
2022-10-10T18:54:13.829Z,15.80
2022-10-10T18:56:46.022Z,15.77
2022-10-10T18:59:16.859Z,15.78
2022-10-10T19:01:46.771Z,15.76
2022-10-10T19:04:17.835Z,15.74
2022-10-10T19:06:46.241Z,15.76
2022-10-10T19:09:16.230Z,15.72
2022-10-10T19:11:46.750Z,15.71
2022-10-10T19:14:17.461Z,15.73
2022-10-10T19:16:47.796Z,15.74
2022-10-10T19:19:19.684Z,15.69
2022-10-10T19:21:49.322Z,15.64
2022-10-10T19:24:21.371Z,15.61
2022-10-10T19:26:56.950Z,15.60
2022-10-10T19:29:27.517Z,15.58
2022-10-10T19:31:56.354Z,15.53
2022-10-10T19:34:26.364Z,15.59
2022-10-10T19:36:54.957Z,15.56
2022-10-10T19:39:23.671Z,15.63
2022-10-10T19:41:52.237Z,15.63
2022-10-10T19:44:20.722Z,15.55
2022-10-10T19:46:49.239Z,15.61
2022-10-10T19:49:17.726Z,15.57
2022-10-10T19:51:47.744Z,15.53
2022-10-10T19:54:16.217Z,15.46
2022-10-10T19:56:44.850Z,15.43
2022-10-10T19:59:13.451Z,15.44
2022-10-10T20:01:41.962Z,15.39
2022-10-10T20:04:10.458Z,15.38
2022-10-10T20:06:41.406Z,15.34
2022-10-10T20:09:12.054Z,15.31
2022-10-10T20:11:41.359Z,15.27
2022-10-10T20:14:10.290Z,15.24
2022-10-10T20:16:39.236Z,15.22
2022-10-10T20:19:07.724Z,15.21
2022-10-10T20:21:36.538Z,15.21
2022-10-10T20:24:07.378Z,15.20
2022-10-10T20:26:38.373Z,15.18
2022-10-10T20:29:07.407Z,15.18
2022-10-10T20:31:38.058Z,15.17
2022-10-10T20:34:08.073Z,15.14
2022-10-10T20:36:36.746Z,15.16
2022-10-10T20:39:08.221Z,15.18
2022-10-10T20:41:39.505Z,15.16
2022-10-10T20:44:09.783Z,15.12
2022-10-10T20:46:39.813Z,15.11
2022-10-10T20:49:14.439Z,15.11
2022-10-10T20:51:48.565Z,15.10
2022-10-10T20:54:18.588Z,15.11
2022-10-10T20:56:50.002Z,15.12
2022-10-10T20:59:18.603Z,15.13
2022-10-10T21:01:47.214Z,15.10
2022-10-10T21:04:15.748Z,15.14
2022-10-10T21:06:44.440Z,15.13
2022-10-10T21:09:15.449Z,15.12
2022-10-10T21:11:46.445Z,15.12
2022-10-10T21:14:19.250Z,15.13
2022-10-10T21:16:48.582Z,15.15
2022-10-10T21:19:17.044Z,15.14
2022-10-10T21:21:45.632Z,15.16
2022-10-10T21:24:15.179Z,15.14
2022-10-10T21:26:45.678Z,15.13
2022-10-10T21:29:14.274Z,15.11
2022-10-10T21:31:44.431Z,15.12
2022-10-10T21:34:17.172Z,15.03
2022-10-10T21:36:45.715Z,15.09
2022-10-10T21:39:14.936Z,15.05
2022-10-10T21:41:43.459Z,15.03
2022-10-10T21:44:12.259Z,15.01
2022-10-10T21:46:40.859Z,15.05
2022-10-10T21:49:13.328Z,15.00
2022-10-10T21:51:43.756Z,14.99
2022-10-10T21:54:12.894Z,14.95
2022-10-10T21:56:42.182Z,14.94
2022-10-10T21:59:11.870Z,14.91
2022-10-10T22:01:40.570Z,14.90
2022-10-10T22:04:11.427Z,14.91
2022-10-10T22:06:40.126Z,14.91
2022-10-10T22:09:08.600Z,14.90
2022-10-10T22:11:37.072Z,14.90
2022-10-10T22:14:06.106Z,14.84
2022-10-10T22:16:35.173Z,14.83
2022-10-10T22:19:04.562Z,14.80
2022-10-10T22:21:35.249Z,14.76
2022-10-10T22:24:07.108Z,14.80
2022-10-10T22:26:36.565Z,14.77
2022-10-10T22:29:05.899Z,14.71
2022-10-10T22:31:37.961Z,14.72
2022-10-10T22:34:07.482Z,14.67
2022-10-10T22:36:37.598Z,14.66
2022-10-10T22:39:07.510Z,14.65
2022-10-10T22:41:36.399Z,14.65
2022-10-10T22:44:05.200Z,14.63
2022-10-10T22:46:34.192Z,14.62
2022-10-10T22:49:02.680Z,14.60
2022-10-10T22:51:31.395Z,14.61
2022-10-10T22:54:01.391Z,14.61
2022-10-10T22:56:29.989Z,14.59
2022-10-10T22:58:58.579Z,14.55
2022-10-10T23:01:28.761Z,14.59
2022-10-10T23:04:00.563Z,14.57
2022-10-10T23:06:29.358Z,14.57
2022-10-10T23:08:58.488Z,14.56
2022-10-10T23:11:28.575Z,14.53
2022-10-10T23:13:57.067Z,14.52
2022-10-10T23:16:25.774Z,14.51
2022-10-10T23:18:54.346Z,14.51
2022-10-10T23:21:23.206Z,14.48
2022-10-10T23:23:52.039Z,14.47
2022-10-10T23:26:20.742Z,14.46
2022-10-10T23:28:52.834Z,14.45
2022-10-10T23:31:21.705Z,14.46
2022-10-10T23:33:50.334Z,14.46
2022-10-10T23:36:19.068Z,14.44
2022-10-10T23:38:49.106Z,14.42
2022-10-10T23:41:18.003Z,14.45
2022-10-10T23:43:47.551Z,14.36
2022-10-10T23:46:17.613Z,14.40
2022-10-10T23:48:46.099Z,14.40
2022-10-10T23:51:15.098Z,14.40
2022-10-10T23:53:43.598Z,14.41
2022-10-10T23:56:13.736Z,14.38
2022-10-10T23:58:42.190Z,14.34
